createdAt,value
2019-02-14T00:00:08.592Z,2.10
2019-02-14T00:02:39.310Z,2.10
2019-02-14T00:05:16.220Z,2.30
2019-02-14T00:07:43.056Z,2.30
2019-02-14T00:10:16.718Z,2.30
2019-02-14T00:12:49.481Z,2.30
2019-02-14T00:15:22.548Z,2.30
2019-02-14T00:17:53.962Z,2.30
2019-02-14T00:20:26.258Z,2.50
2019-02-14T00:22:58.546Z,2.40
2019-02-14T00:25:30.190Z,2.50
2019-02-14T00:28:02.763Z,2.50
2019-02-14T00:30:33.286Z,2.40
2019-02-14T00:33:02.705Z,2.30
2019-02-14T00:35:32.623Z,2.30
2019-02-14T00:38:04.412Z,2.00
2019-02-14T00:40:36.879Z,1.90
2019-02-14T00:43:09.582Z,1.70
2019-02-14T00:45:40.792Z,1.60
2019-02-14T00:48:11.241Z,1.60
2019-02-14T00:50:41.912Z,1.60
2019-02-14T00:53:13.895Z,1.30
2019-02-14T00:55:47.275Z,1.30
2019-02-14T00:58:20.909Z,1.30
2019-02-14T01:00:53.285Z,1.30
2019-02-14T01:03:24.277Z,1.20
2019-02-14T01:05:55.909Z,1.20
2019-02-14T01:08:27.793Z,1.10
2019-02-14T01:11:00.629Z,1.10
2019-02-14T01:13:34.350Z,1.00
2019-02-14T01:16:09.865Z,0.70
2019-02-14T01:18:42.802Z,0.60
2019-02-14T01:21:15.330Z,0.50
2019-02-14T01:23:46.827Z,0.50
2019-02-14T01:26:18.224Z,0.40
2019-02-14T01:28:49.841Z,0.40
2019-02-14T01:31:21.973Z,0.30
2019-02-14T01:33:52.933Z,0.20
2019-02-14T01:36:23.709Z,0.00
2019-02-14T01:38:54.253Z,-0.10
2019-02-14T01:41:30.132Z,-0.20
2019-02-14T01:44:00.257Z,-0.10
2019-02-14T01:46:32.132Z,-0.20
2019-02-14T01:49:04.497Z,-0.20
2019-02-14T01:51:35.949Z,-0.20
2019-02-14T01:54:06.768Z,-0.30
2019-02-14T01:56:39.594Z,-0.40
2019-02-14T01:59:11.543Z,-0.40
2019-02-14T02:01:42.457Z,-0.40
2019-02-14T02:04:14.989Z,-0.40
2019-02-14T02:06:46.226Z,-0.40
2019-02-14T02:09:16.340Z,-0.40
2019-02-14T02:11:48.823Z,-0.40
2019-02-14T02:14:21.209Z,-0.50
2019-02-14T02:16:52.997Z,-0.40
2019-02-14T02:19:25.586Z,-0.30
2019-02-14T02:21:57.153Z,-0.40
2019-02-14T02:24:28.041Z,-0.60
2019-02-14T02:27:02.356Z,-0.60
2019-02-14T02:29:33.351Z,-0.60
2019-02-14T02:32:04.437Z,-0.50
2019-02-14T02:34:35.561Z,-0.40
2019-02-14T02:37:07.369Z,-0.40
2019-02-14T02:39:38.136Z,-0.30
2019-02-14T02:42:10.624Z,-0.40
2019-02-14T02:44:41.524Z,-0.60
2019-02-14T02:47:12.344Z,-0.70
2019-02-14T02:49:44.724Z,-0.70
2019-02-14T02:52:18.318Z,-0.70
2019-02-14T02:54:49.245Z,-0.60
2019-02-14T02:57:21.428Z,-0.50
2019-02-14T02:59:51.297Z,-0.40
2019-02-14T03:02:22.923Z,-0.40
2019-02-14T03:04:55.320Z,-0.30
2019-02-14T03:07:28.181Z,-0.10
2019-02-14T03:10:00.584Z,-0.10
2019-02-14T03:12:33.353Z,0.00
2019-02-14T03:15:06.423Z,0.00
2019-02-14T03:17:37.667Z,0.10
2019-02-14T03:20:08.573Z,0.00
2019-02-14T03:22:41.257Z,0.00
2019-02-14T03:25:35.695Z,-0.10
2019-02-14T03:28:07.821Z,-0.10
2019-02-14T03:30:39.897Z,-0.10
2019-02-14T03:33:09.381Z,-0.20
2019-02-14T03:35:40.265Z,-0.10
2019-02-14T03:38:10.097Z,-0.10
2019-02-14T03:40:42.088Z,-0.20
2019-02-14T03:43:14.470Z,-0.20
2019-02-14T03:45:45.881Z,-0.20
2019-02-14T03:48:17.265Z,-0.30
2019-02-14T03:50:51.306Z,-0.20
2019-02-14T03:53:21.533Z,-0.20
2019-02-14T03:55:55.001Z,-0.20
2019-02-14T03:58:27.360Z,-0.20
2019-02-14T04:00:57.707Z,-0.20
2019-02-14T04:03:28.201Z,-0.20
2019-02-14T04:05:59.837Z,-0.20
2019-02-14T04:08:30.962Z,-0.20
2019-02-14T04:11:01.116Z,-0.20
2019-02-14T04:13:33.657Z,-0.10
2019-02-14T04:16:05.424Z,-0.20
2019-02-14T04:18:35.276Z,-0.20
2019-02-14T04:21:11.133Z,-0.10
2019-02-14T04:23:43.020Z,-0.10
2019-02-14T04:26:15.008Z,-0.20
2019-02-14T04:28:45.552Z,-0.10
2019-02-14T04:31:17.545Z,-0.10
2019-02-14T04:33:50.144Z,-0.10
2019-02-14T04:36:21.013Z,0.00
2019-02-14T04:38:51.521Z,-0.10
2019-02-14T04:41:20.705Z,0.00
2019-02-14T04:43:53.617Z,-0.10
2019-02-14T04:46:26.100Z,-0.10
2019-02-14T04:48:57.386Z,0.10
2019-02-14T04:51:31.043Z,0.10
2019-02-14T04:54:01.392Z,0.10
2019-02-14T04:56:33.465Z,0.10
2019-02-14T04:59:05.022Z,0.10
2019-02-14T05:01:36.182Z,0.10
2019-02-14T05:04:10.474Z,0.00
2019-02-14T05:06:44.342Z,0.10
2019-02-14T05:09:14.577Z,0.10
2019-02-14T05:11:44.205Z,0.10
2019-02-14T05:14:13.773Z,0.10
2019-02-14T05:16:42.854Z,0.00
2019-02-14T05:19:13.000Z,0.00
2019-02-14T05:21:45.288Z,0.00
2019-02-14T05:24:16.315Z,0.00
2019-02-14T05:26:48.181Z,0.00
2019-02-14T05:29:21.037Z,0.00
2019-02-14T05:31:58.028Z,0.00
2019-02-14T05:34:28.981Z,0.00
2019-02-14T05:37:00.488Z,0.00
2019-02-14T05:39:33.487Z,0.10
2019-02-14T05:42:06.168Z,0.10
2019-02-14T05:44:38.633Z,0.20
2019-02-14T05:47:10.602Z,0.10
2019-02-14T05:49:43.065Z,0.20
2019-02-14T05:52:13.408Z,0.20
2019-02-14T05:54:45.360Z,0.20
2019-02-14T05:57:19.125Z,0.30
2019-02-14T05:59:51.052Z,0.30
2019-02-14T06:02:32.230Z,0.30
2019-02-14T06:05:03.793Z,0.40
2019-02-14T06:07:37.194Z,0.40
2019-02-14T06:10:09.721Z,0.40
2019-02-14T06:12:40.915Z,0.30
2019-02-14T06:15:12.950Z,0.40
2019-02-14T06:17:48.072Z,0.40
2019-02-14T06:20:19.090Z,0.40
2019-02-14T06:22:49.016Z,0.50
2019-02-14T06:25:21.426Z,0.50
2019-02-14T06:27:55.273Z,0.40
2019-02-14T06:30:28.857Z,0.50
2019-02-14T06:33:01.360Z,0.50
2019-02-14T06:35:33.208Z,0.50
2019-02-14T06:38:04.143Z,0.50
2019-02-14T06:40:35.769Z,0.40
2019-02-14T06:43:07.995Z,0.40
2019-02-14T06:45:40.201Z,0.40
2019-02-14T06:48:12.617Z,0.40
2019-02-14T06:50:44.427Z,0.40
2019-02-14T06:53:15.993Z,0.30
2019-02-14T06:55:46.909Z,0.40
2019-02-14T06:58:17.901Z,0.40
2019-02-14T07:00:46.773Z,0.30
2019-02-14T07:03:18.205Z,0.30
2019-02-14T07:05:52.694Z,0.30
2019-02-14T07:08:23.146Z,0.40
2019-02-14T07:10:55.712Z,0.30
2019-02-14T07:13:27.436Z,0.30
2019-02-14T07:15:58.654Z,0.40
2019-02-14T07:18:31.050Z,0.40
2019-02-14T07:21:01.090Z,0.50
2019-02-14T07:23:32.441Z,0.50
2019-02-14T07:26:03.850Z,0.50
2019-02-14T07:28:36.589Z,0.50
2019-02-14T07:31:08.968Z,0.50
2019-02-14T07:33:40.326Z,0.50
2019-02-14T07:36:11.920Z,0.60
2019-02-14T07:38:44.873Z,0.60
2019-02-14T07:41:16.008Z,0.60
2019-02-14T07:43:47.400Z,0.70
2019-02-14T07:46:22.722Z,0.70
2019-02-14T07:48:52.685Z,0.70
2019-02-14T07:51:27.441Z,0.70
2019-02-14T07:53:58.085Z,0.70
2019-02-14T07:56:30.632Z,0.80
2019-02-14T07:59:03.437Z,0.80
2019-02-14T08:01:34.396Z,0.80
2019-02-14T08:04:05.973Z,0.80
2019-02-14T08:06:34.784Z,0.90
2019-02-14T08:09:11.370Z,0.90
2019-02-14T08:11:42.386Z,1.00
2019-02-14T08:14:20.907Z,1.00
2019-02-14T08:16:53.461Z,1.00
2019-02-14T08:19:25.532Z,1.00
2019-02-14T08:21:56.852Z,1.10
2019-02-14T08:24:28.398Z,1.10
2019-02-14T08:27:01.841Z,1.20
2019-02-14T08:29:36.589Z,1.20
2019-02-14T08:32:11.112Z,1.20
2019-02-14T08:34:42.864Z,1.20
2019-02-14T08:37:14.503Z,1.30
2019-02-14T08:39:44.781Z,1.40
2019-02-14T08:42:18.999Z,1.40
2019-02-14T08:44:51.004Z,1.50
2019-02-14T08:47:39.969Z,1.50
2019-02-14T08:50:33.105Z,1.50
2019-02-14T08:53:05.564Z,1.60
2019-02-14T08:55:39.944Z,1.60
2019-02-14T08:58:11.388Z,1.60
2019-02-14T09:00:42.293Z,1.70
2019-02-14T09:03:15.053Z,1.70
2019-02-14T09:05:45.811Z,1.70
2019-02-14T09:08:17.862Z,1.70
2019-02-14T09:10:46.597Z,1.80
2019-02-14T09:13:17.474Z,1.90
2019-02-14T09:15:47.665Z,1.90
2019-02-14T09:18:19.402Z,1.90
2019-02-14T09:20:49.684Z,2.00
2019-02-14T09:23:21.093Z,2.00
2019-02-14T09:25:51.892Z,2.00
2019-02-14T09:28:21.238Z,2.00
2019-02-14T09:30:52.440Z,2.10
2019-02-14T09:33:22.652Z,2.20
2019-02-14T09:35:54.794Z,2.20
2019-02-14T09:38:27.303Z,2.20
2019-02-14T09:41:01.331Z,2.30
2019-02-14T09:43:33.777Z,2.40
2019-02-14T09:46:05.225Z,2.60
2019-02-14T09:48:38.100Z,2.70
2019-02-14T09:51:09.207Z,2.70
2019-02-14T09:53:40.054Z,2.80
2019-02-14T09:56:11.263Z,2.80
2019-02-14T09:58:42.035Z,2.90
2019-02-14T10:01:13.531Z,3.00
2019-02-14T10:03:44.493Z,3.10
2019-02-14T10:06:14.886Z,3.10
2019-02-14T10:08:47.797Z,3.10
2019-02-14T10:11:19.360Z,3.10
2019-02-14T10:13:50.464Z,3.10
2019-02-14T10:16:22.551Z,3.20
2019-02-14T10:18:54.588Z,3.20
2019-02-14T10:21:25.786Z,3.20
2019-02-14T10:23:56.377Z,3.20
2019-02-14T10:26:29.289Z,3.20
2019-02-14T10:28:59.349Z,3.20
2019-02-14T10:31:33.687Z,3.30
2019-02-14T10:34:05.872Z,3.30
2019-02-14T10:36:38.472Z,3.30
2019-02-14T10:39:11.202Z,3.30
2019-02-14T10:41:43.055Z,3.40
2019-02-14T10:44:15.723Z,3.40
2019-02-14T10:46:44.420Z,3.40
2019-02-14T10:49:15.346Z,3.50
2019-02-14T10:51:49.002Z,3.50
2019-02-14T10:54:19.453Z,3.50
2019-02-14T10:56:51.500Z,3.60
2019-02-14T10:59:22.777Z,3.60
2019-02-14T11:01:55.361Z,3.70
2019-02-14T11:04:28.350Z,3.70
2019-02-14T11:07:01.425Z,3.80
2019-02-14T11:09:33.766Z,3.80
2019-02-14T11:12:04.711Z,3.80
2019-02-14T11:14:35.824Z,3.80
2019-02-14T11:17:08.139Z,3.90
2019-02-14T11:19:41.245Z,3.90
2019-02-14T11:22:11.740Z,4.00
2019-02-14T11:24:41.801Z,4.00
2019-02-14T11:27:13.389Z,4.00
2019-02-14T11:29:45.237Z,4.10
2019-02-14T11:32:17.584Z,4.10
2019-02-14T11:34:51.209Z,4.10
2019-02-14T11:37:23.177Z,4.20
2019-02-14T11:39:56.049Z,4.10
2019-02-14T11:42:26.962Z,4.10
2019-02-14T11:44:57.953Z,4.10
2019-02-14T11:47:29.717Z,4.10
2019-02-14T11:50:04.141Z,4.10
2019-02-14T11:52:39.217Z,4.10
2019-02-14T11:55:11.298Z,4.10
2019-02-14T11:57:42.775Z,4.10
2019-02-14T12:00:20.384Z,4.10
2019-02-14T12:02:55.966Z,4.10
2019-02-14T12:05:26.737Z,4.10
2019-02-14T12:07:59.080Z,4.10
2019-02-14T12:10:33.361Z,4.10
2019-02-14T12:13:04.181Z,4.10
2019-02-14T12:15:34.473Z,4.00
2019-02-14T12:18:06.987Z,4.00
2019-02-14T12:20:38.872Z,4.00
2019-02-14T12:23:11.449Z,3.90
2019-02-14T12:25:42.742Z,3.90
2019-02-14T12:28:14.821Z,3.90
2019-02-14T12:30:49.756Z,3.90
2019-02-14T12:33:22.390Z,3.90
2019-02-14T12:35:53.606Z,3.90
2019-02-14T12:38:26.601Z,3.90
2019-02-14T12:40:59.242Z,4.00
2019-02-14T12:43:31.660Z,4.00
2019-02-14T12:46:07.026Z,4.10
2019-02-14T12:48:37.256Z,4.20
2019-02-14T12:51:09.001Z,4.30
2019-02-14T12:53:42.409Z,4.40
2019-02-14T12:56:14.405Z,4.40
2019-02-14T12:58:45.739Z,4.40
2019-02-14T13:01:17.249Z,4.40
2019-02-14T13:03:47.552Z,4.40
2019-02-14T13:06:18.425Z,4.40
2019-02-14T13:08:49.709Z,4.40
2019-02-14T13:11:21.260Z,4.40
2019-02-14T13:13:50.964Z,4.40
2019-02-14T13:16:22.361Z,4.40
2019-02-14T13:18:52.166Z,4.30
2019-02-14T13:21:25.390Z,4.30
2019-02-14T13:23:58.954Z,4.30
2019-02-14T13:26:29.938Z,4.30
2019-02-14T13:29:01.258Z,4.30
2019-02-14T13:31:32.859Z,4.30
2019-02-14T13:34:03.605Z,4.30
2019-02-14T13:36:40.266Z,4.30
2019-02-14T13:39:13.023Z,4.30
2019-02-14T13:41:43.465Z,4.30
2019-02-14T13:44:17.005Z,4.20
2019-02-14T13:46:49.451Z,4.20
2019-02-14T13:49:21.423Z,4.20
2019-02-14T13:51:53.044Z,4.20
2019-02-14T13:54:25.575Z,4.20
2019-02-14T13:56:57.468Z,4.20
2019-02-14T13:59:31.965Z,4.20
2019-02-14T14:02:04.237Z,4.20
2019-02-14T14:04:38.481Z,4.20
2019-02-14T14:07:08.578Z,4.20
2019-02-14T14:09:40.158Z,4.20
2019-02-14T14:12:13.129Z,4.30
2019-02-14T14:14:45.119Z,4.30
2019-02-14T14:17:14.102Z,4.30
2019-02-14T14:19:43.922Z,4.30
2019-02-14T14:22:15.041Z,4.40
2019-02-14T14:24:46.606Z,4.40
2019-02-14T14:27:17.730Z,4.30
2019-02-14T14:29:52.197Z,4.40
2019-02-14T14:32:24.196Z,4.40
2019-02-14T14:34:55.560Z,4.40
2019-02-14T14:37:29.012Z,4.30
2019-02-14T14:40:00.873Z,4.40
2019-02-14T14:43:06.851Z,4.40
2019-02-14T14:46:04.756Z,4.30
2019-02-14T14:48:42.261Z,4.30
2019-02-14T14:51:14.221Z,4.40
2019-02-14T14:53:47.029Z,4.40
2019-02-14T14:56:19.205Z,4.40
2019-02-14T14:58:50.959Z,4.40
2019-02-14T15:01:21.564Z,4.40
2019-02-14T15:03:53.410Z,4.40
2019-02-14T15:06:25.454Z,4.40
2019-02-14T15:08:58.034Z,4.30
2019-02-14T15:11:29.913Z,4.40
2019-02-14T15:14:00.718Z,4.40
2019-02-14T15:16:33.753Z,4.40
2019-02-14T15:19:07.348Z,4.40
2019-02-14T15:21:38.722Z,4.30
2019-02-14T15:24:11.332Z,4.40
2019-02-14T15:26:43.288Z,4.40
2019-02-14T15:29:16.781Z,4.30
2019-02-14T15:31:48.238Z,4.30
2019-02-14T15:34:21.034Z,4.30
2019-02-14T15:36:54.665Z,4.30
2019-02-14T15:39:28.510Z,4.20
2019-02-14T15:42:00.816Z,4.20
2019-02-14T15:44:32.964Z,4.20
2019-02-14T15:47:05.815Z,4.10
2019-02-14T15:49:37.131Z,4.10
2019-02-14T15:52:08.570Z,4.10
2019-02-14T15:54:40.729Z,4.20
2019-02-14T15:57:11.145Z,4.20
2019-02-14T15:59:43.528Z,4.20
2019-02-14T16:02:14.517Z,4.20
2019-02-14T16:04:45.942Z,4.30
2019-02-14T16:07:15.781Z,4.30
2019-02-14T16:09:48.990Z,4.20
2019-02-14T16:12:21.861Z,4.20
2019-02-14T16:14:54.473Z,4.20
2019-02-14T16:17:25.387Z,4.20
2019-02-14T16:19:59.737Z,4.20
2019-02-14T16:22:30.577Z,4.20
2019-02-14T16:25:06.982Z,4.20
2019-02-14T16:27:37.957Z,4.20
2019-02-14T16:30:11.208Z,4.30
2019-02-14T16:32:41.708Z,4.20
2019-02-14T16:35:14.983Z,4.20
2019-02-14T16:37:49.953Z,4.20
2019-02-14T16:40:27.661Z,4.30
2019-02-14T16:42:56.357Z,4.40
2019-02-14T16:45:27.398Z,4.40
2019-02-14T16:47:57.501Z,4.40
2019-02-14T16:50:30.230Z,4.50
2019-02-14T16:53:03.081Z,4.50
2019-02-14T16:55:35.593Z,4.40
2019-02-14T16:58:06.726Z,4.30
2019-02-14T17:00:35.914Z,4.30
2019-02-14T17:03:07.659Z,4.40
2019-02-14T17:05:39.730Z,4.30
2019-02-14T17:08:10.633Z,4.30
2019-02-14T17:10:42.689Z,4.30
2019-02-14T17:13:13.914Z,4.30
2019-02-14T17:15:45.897Z,4.30
2019-02-14T17:18:17.102Z,4.30
2019-02-14T17:20:47.534Z,4.20
2019-02-14T17:23:18.229Z,4.30
2019-02-14T17:25:49.097Z,4.30
2019-02-14T17:28:21.363Z,4.40
2019-02-14T17:30:54.681Z,4.40
2019-02-14T17:33:25.847Z,4.40
2019-02-14T17:35:59.181Z,4.30
2019-02-14T17:38:31.957Z,4.30
2019-02-14T17:41:03.337Z,4.30
2019-02-14T17:43:37.046Z,4.30
2019-02-14T17:46:07.594Z,4.30
2019-02-14T17:48:38.664Z,4.30
2019-02-14T17:51:09.804Z,4.30
2019-02-14T17:53:41.404Z,4.40
2019-02-14T17:56:12.313Z,4.50
2019-02-14T17:58:47.337Z,4.50
2019-02-14T18:01:19.208Z,4.40
2019-02-14T18:03:51.717Z,4.40
2019-02-14T18:06:21.860Z,4.40
2019-02-14T18:08:54.038Z,4.40
2019-02-14T18:11:25.032Z,4.40
2019-02-14T18:13:56.752Z,4.30
2019-02-14T18:16:28.594Z,4.30
2019-02-14T18:19:00.844Z,4.40
2019-02-14T18:21:31.696Z,4.30
2019-02-14T18:24:02.462Z,4.20
2019-02-14T18:26:33.992Z,4.20
2019-02-14T18:29:23.396Z,4.20
2019-02-14T18:31:53.822Z,4.20
2019-02-14T18:34:24.296Z,4.20
2019-02-14T18:36:57.641Z,4.20
2019-02-14T18:39:29.898Z,4.20
2019-02-14T18:42:01.436Z,4.30
2019-02-14T18:44:32.265Z,4.30
2019-02-14T18:47:06.117Z,4.20
2019-02-14T18:49:38.068Z,4.20
2019-02-14T18:52:10.581Z,4.20
2019-02-14T18:54:40.255Z,4.40
2019-02-14T18:57:12.754Z,4.40
2019-02-14T18:59:45.526Z,4.40
2019-02-14T19:02:16.971Z,4.40
2019-02-14T19:04:49.597Z,4.40
2019-02-14T19:07:22.573Z,4.40
2019-02-14T19:09:54.733Z,4.30
2019-02-14T19:12:27.193Z,4.30
2019-02-14T19:14:57.577Z,4.40
2019-02-14T19:17:27.477Z,4.60
2019-02-14T19:19:57.092Z,4.50
2019-02-14T19:24:58.366Z,4.50
2019-02-14T19:27:30.228Z,4.50
2019-02-14T19:30:00.405Z,4.60
2019-02-14T19:32:29.436Z,4.50
2019-02-14T19:34:58.814Z,4.50
2019-02-14T19:37:28.476Z,4.50
2019-02-14T19:39:58.349Z,4.50
2019-02-14T19:42:30.393Z,4.60
2019-02-14T19:45:00.774Z,4.60
2019-02-14T19:47:33.303Z,4.80
2019-02-14T19:50:04.745Z,4.80
2019-02-14T19:52:35.125Z,4.80
2019-02-14T19:55:07.753Z,4.60
2019-02-14T19:57:40.201Z,4.60
2019-02-14T20:00:19.133Z,4.50
2019-02-14T20:02:50.601Z,4.40
2019-02-14T20:05:21.552Z,4.40
2019-02-14T20:07:51.201Z,4.60
2019-02-14T20:10:22.263Z,4.60
2019-02-14T20:12:56.228Z,4.60
2019-02-14T20:15:36.830Z,4.60
2019-02-14T20:18:03.502Z,4.50
2019-02-14T20:20:34.825Z,4.50
2019-02-14T20:23:06.546Z,4.50
2019-02-14T20:25:37.976Z,4.60
2019-02-14T20:28:09.866Z,4.50
2019-02-14T20:30:44.014Z,4.50
2019-02-14T20:33:17.113Z,4.50
2019-02-14T20:35:49.529Z,4.60
2019-02-14T20:38:20.942Z,4.50
2019-02-14T20:40:52.893Z,4.40
2019-02-14T20:43:27.225Z,4.40
2019-02-14T20:45:59.033Z,4.50
2019-02-14T20:48:31.065Z,4.30
2019-02-14T20:51:03.557Z,4.40
2019-02-14T20:53:55.543Z,4.40
2019-02-14T20:56:25.901Z,4.30
2019-02-14T20:58:56.014Z,4.30
2019-02-14T21:01:26.326Z,4.30
2019-02-14T21:03:58.059Z,4.30
2019-02-14T21:06:28.909Z,4.30
2019-02-14T21:08:58.561Z,4.30
2019-02-14T21:11:29.049Z,4.30
2019-02-14T21:14:01.974Z,4.20
2019-02-14T21:16:34.461Z,4.20
2019-02-14T21:19:07.018Z,4.10
2019-02-14T21:21:38.892Z,4.20
2019-02-14T21:24:11.610Z,4.20
2019-02-14T21:26:43.009Z,4.10
2019-02-14T21:29:16.500Z,4.20
2019-02-14T21:31:49.180Z,4.20
2019-02-14T21:34:20.894Z,4.20
2019-02-14T21:36:50.970Z,4.20
2019-02-14T21:39:20.449Z,4.20
2019-02-14T21:41:52.053Z,4.20
2019-02-14T21:44:23.884Z,4.20
2019-02-14T21:46:56.335Z,4.10
2019-02-14T21:49:29.139Z,4.10
2019-02-14T21:52:01.516Z,4.10
2019-02-14T21:54:33.868Z,4.10
2019-02-14T21:57:06.577Z,4.10
2019-02-14T21:59:38.137Z,4.00
2019-02-14T22:02:07.767Z,4.10
2019-02-14T22:04:38.018Z,4.10
2019-02-14T22:07:07.924Z,4.00
2019-02-14T22:09:41.329Z,4.00
2019-02-14T22:12:12.847Z,3.90
2019-02-14T22:14:43.483Z,3.90
2019-02-14T22:17:13.905Z,4.00
2019-02-14T22:19:45.297Z,3.90
2019-02-14T22:22:16.692Z,3.90
2019-02-14T22:24:52.013Z,3.90
2019-02-14T22:27:24.073Z,3.90
2019-02-14T22:29:56.653Z,3.90
2019-02-14T22:32:29.412Z,3.90
2019-02-14T22:35:00.753Z,3.80
2019-02-14T22:37:33.489Z,3.80
2019-02-14T22:40:06.165Z,3.80
2019-02-14T22:42:36.433Z,3.80
2019-02-14T22:45:08.305Z,3.80
2019-02-14T22:47:38.933Z,3.80
2019-02-14T22:50:10.268Z,3.80
2019-02-14T22:52:39.354Z,3.80
2019-02-14T22:55:10.473Z,3.80
2019-02-14T22:57:42.931Z,3.80
2019-02-14T23:00:18.857Z,3.80
2019-02-14T23:02:49.810Z,3.80
2019-02-14T23:05:22.200Z,3.90
2019-02-14T23:07:52.586Z,3.90
2019-02-14T23:10:23.153Z,4.00
2019-02-14T23:12:56.346Z,4.00
2019-02-14T23:15:27.841Z,4.00
2019-02-14T23:18:00.427Z,4.00
2019-02-14T23:20:34.896Z,4.00
2019-02-14T23:23:04.841Z,4.10
2019-02-14T23:25:34.332Z,4.10
2019-02-14T23:28:07.113Z,4.10
2019-02-14T23:30:37.941Z,4.00
2019-02-14T23:33:08.419Z,4.00
2019-02-14T23:35:38.581Z,4.00
2019-02-14T23:38:09.952Z,4.00
2019-02-14T23:40:41.751Z,4.00
2019-02-14T23:43:12.676Z,4.00
2019-02-14T23:45:46.926Z,4.00
2019-02-14T23:48:17.495Z,4.00
2019-02-14T23:50:49.268Z,4.00
2019-02-14T23:53:19.560Z,4.00
2019-02-14T23:55:49.706Z,4.00
2019-02-14T23:58:20.694Z,4.10
